sensor_id;sensor_type;location;lat;lon;timestamp;P1;durP1;ratioP1;P2;durP2;ratioP2
10277;SDS011;5184;51.376;7.148;2023-02-21T00:00:52;33.57;;;22.67;;
10277;SDS011;5184;51.376;7.148;2023-02-21T00:03:25;38.83;;;24.73;;
10277;SDS011;5184;51.376;7.148;2023-02-21T00:05:57;36.17;;;22.33;;
10277;SDS011;5184;51.376;7.148;2023-02-21T00:08:29;37.97;;;22.60;;
10277;SDS011;5184;51.376;7.148;2023-02-21T00:11:01;35.67;;;23.63;;
10277;SDS011;5184;51.376;7.148;2023-02-21T00:13:36;38.43;;;24.90;;
10277;SDS011;5184;51.376;7.148;2023-02-21T00:16:08;37.37;;;24.17;;
10277;SDS011;5184;51.376;7.148;2023-02-21T00:18:40;39.83;;;24.50;;
10277;SDS011;5184;51.376;7.148;2023-02-21T00:21:13;39.23;;;23.63;;
10277;SDS011;5184;51.376;7.148;2023-02-21T00:23:45;41.67;;;24.23;;
10277;SDS011;5184;51.376;7.148;2023-02-21T00:26:18;36.97;;;24.17;;
10277;SDS011;5184;51.376;7.148;2023-02-21T00:28:50;40.63;;;25.73;;
10277;SDS011;5184;51.376;7.148;2023-02-21T00:31:23;40.33;;;25.30;;
10277;SDS011;5184;51.376;7.148;2023-02-21T00:33:55;41.17;;;24.67;;
10277;SDS011;5184;51.376;7.148;2023-02-21T00:36:28;42.03;;;24.87;;
10277;SDS011;5184;51.376;7.148;2023-02-21T00:39:00;42.67;;;24.40;;
10277;SDS011;5184;51.376;7.148;2023-02-21T00:41:32;44.07;;;25.50;;
10277;SDS011;5184;51.376;7.148;2023-02-21T00:44:05;40.00;;;23.40;;
10277;SDS011;5184;51.376;7.148;2023-02-21T00:46:38;40.37;;;25.70;;
10277;SDS011;5184;51.376;7.148;2023-02-21T00:49:10;45.67;;;25.30;;
10277;SDS011;5184;51.376;7.148;2023-02-21T00:51:43;42.20;;;25.47;;
10277;SDS011;5184;51.376;7.148;2023-02-21T00:54:15;43.73;;;26.43;;
10277;SDS011;5184;51.376;7.148;2023-02-21T00:56:48;40.90;;;24.97;;
10277;SDS011;5184;51.376;7.148;2023-02-21T00:59:20;45.03;;;25.80;;
10277;SDS011;5184;51.376;7.148;2023-02-21T01:01:52;44.47;;;25.17;;
10277;SDS011;5184;51.376;7.148;2023-02-21T01:04:24;45.83;;;26.47;;
10277;SDS011;5184;51.376;7.148;2023-02-21T01:06:57;47.10;;;27.33;;
10277;SDS011;5184;51.376;7.148;2023-02-21T01:09:29;45.23;;;25.40;;
10277;SDS011;5184;51.376;7.148;2023-02-21T01:12:01;44.40;;;26.97;;
10277;SDS011;5184;51.376;7.148;2023-02-21T01:14:34;43.67;;;26.03;;
10277;SDS011;5184;51.376;7.148;2023-02-21T01:17:06;43.47;;;26.47;;
10277;SDS011;5184;51.376;7.148;2023-02-21T01:19:39;49.33;;;26.87;;
10277;SDS011;5184;51.376;7.148;2023-02-21T01:22:11;48.90;;;26.13;;
10277;SDS011;5184;51.376;7.148;2023-02-21T01:24:47;43.97;;;25.73;;
10277;SDS011;5184;51.376;7.148;2023-02-21T01:27:17;45.97;;;26.40;;
10277;SDS011;5184;51.376;7.148;2023-02-21T01:29:50;46.37;;;25.97;;
10277;SDS011;5184;51.376;7.148;2023-02-21T01:32:23;43.90;;;25.60;;
10277;SDS011;5184;51.376;7.148;2023-02-21T01:34:55;46.70;;;25.97;;
10277;SDS011;5184;51.376;7.148;2023-02-21T01:37:28;47.17;;;26.53;;
10277;SDS011;5184;51.376;7.148;2023-02-21T01:40:01;46.53;;;26.83;;
10277;SDS011;5184;51.376;7.148;2023-02-21T01:42:34;46.70;;;26.13;;
10277;SDS011;5184;51.376;7.148;2023-02-21T01:45:45;48.00;;;28.47;;
10277;SDS011;5184;51.376;7.148;2023-02-21T01:48:14;44.80;;;25.07;;
10277;SDS011;5184;51.376;7.148;2023-02-21T01:50:45;47.70;;;25.47;;
10277;SDS011;5184;51.376;7.148;2023-02-21T01:53:20;49.53;;;25.77;;
10277;SDS011;5184;51.376;7.148;2023-02-21T01:55:50;50.40;;;27.87;;
10277;SDS011;5184;51.376;7.148;2023-02-21T01:58:23;48.53;;;27.03;;
10277;SDS011;5184;51.376;7.148;2023-02-21T02:00:55;48.43;;;27.27;;
10277;SDS011;5184;51.376;7.148;2023-02-21T02:03:27;50.23;;;28.27;;
10277;SDS011;5184;51.376;7.148;2023-02-21T02:06:02;50.60;;;27.57;;
10277;SDS011;5184;51.376;7.148;2023-02-21T02:08:34;51.87;;;28.13;;
10277;SDS011;5184;51.376;7.148;2023-02-21T02:11:12;47.43;;;27.33;;
10277;SDS011;5184;51.376;7.148;2023-02-21T02:13:51;46.90;;;27.67;;
10277;SDS011;5184;51.376;7.148;2023-02-21T02:16:24;51.93;;;27.70;;
10277;SDS011;5184;51.376;7.148;2023-02-21T02:21:30;51.03;;;27.67;;
10277;SDS011;5184;51.376;7.148;2023-02-21T02:29:33;48.27;;;27.10;;
10277;SDS011;5184;51.376;7.148;2023-02-21T02:33:14;51.33;;;28.33;;
10277;SDS011;5184;51.376;7.148;2023-02-21T02:34:52;57.37;;;29.33;;
10277;SDS011;5184;51.376;7.148;2023-02-21T02:37:21;45.80;;;27.30;;
10277;SDS011;5184;51.376;7.148;2023-02-21T02:39:51;50.73;;;28.70;;
10277;SDS011;5184;51.376;7.148;2023-02-21T02:42:21;53.27;;;28.33;;
10277;SDS011;5184;51.376;7.148;2023-02-21T02:44:48;53.07;;;30.97;;
10277;SDS011;5184;51.376;7.148;2023-02-21T02:47:16;58.83;;;29.13;;
10277;SDS011;5184;51.376;7.148;2023-02-21T02:49:40;54.87;;;30.23;;
10277;SDS011;5184;51.376;7.148;2023-02-21T02:52:07;58.97;;;31.40;;
10277;SDS011;5184;51.376;7.148;2023-02-21T02:54:34;54.93;;;28.43;;
10277;SDS011;5184;51.376;7.148;2023-02-21T02:57:02;54.27;;;29.33;;
10277;SDS011;5184;51.376;7.148;2023-02-21T02:59:28;58.10;;;31.03;;
10277;SDS011;5184;51.376;7.148;2023-02-21T03:01:58;54.50;;;28.97;;
10277;SDS011;5184;51.376;7.148;2023-02-21T03:04:29;51.23;;;28.63;;
10277;SDS011;5184;51.376;7.148;2023-02-21T03:07:01;53.83;;;29.80;;
10277;SDS011;5184;51.376;7.148;2023-02-21T03:09:27;54.50;;;30.83;;
10277;SDS011;5184;51.376;7.148;2023-02-21T03:11:58;53.67;;;30.70;;
10277;SDS011;5184;51.376;7.148;2023-02-21T03:14:25;56.13;;;30.80;;
10277;SDS011;5184;51.376;7.148;2023-02-21T03:16:53;58.43;;;31.23;;
10277;SDS011;5184;51.376;7.148;2023-02-21T03:19:20;56.37;;;30.60;;
10277;SDS011;5184;51.376;7.148;2023-02-21T03:21:47;57.03;;;30.27;;
10277;SDS011;5184;51.376;7.148;2023-02-21T03:24:12;55.93;;;31.83;;
10277;SDS011;5184;51.376;7.148;2023-02-21T03:26:40;56.33;;;31.57;;
10277;SDS011;5184;51.376;7.148;2023-02-21T03:29:06;59.43;;;33.60;;
10277;SDS011;5184;51.376;7.148;2023-02-21T03:31:38;66.53;;;33.60;;
10277;SDS011;5184;51.376;7.148;2023-02-21T03:34:03;63.67;;;33.93;;
10277;SDS011;5184;51.376;7.148;2023-02-21T03:36:30;57.63;;;31.50;;
10277;SDS011;5184;51.376;7.148;2023-02-21T03:38:57;57.30;;;32.03;;
10277;SDS011;5184;51.376;7.148;2023-02-21T03:41:25;61.63;;;32.33;;
10277;SDS011;5184;51.376;7.148;2023-02-21T03:43:51;57.90;;;32.53;;
10277;SDS011;5184;51.376;7.148;2023-02-21T03:46:19;58.90;;;32.60;;
10277;SDS011;5184;51.376;7.148;2023-02-21T03:48:46;60.67;;;33.03;;
10277;SDS011;5184;51.376;7.148;2023-02-21T03:51:14;59.57;;;32.17;;
10277;SDS011;5184;51.376;7.148;2023-02-21T03:53:40;60.13;;;33.33;;
10277;SDS011;5184;51.376;7.148;2023-02-21T03:56:07;64.37;;;32.53;;
10277;SDS011;5184;51.376;7.148;2023-02-21T03:58:33;61.60;;;32.63;;
10277;SDS011;5184;51.376;7.148;2023-02-21T04:01:00;57.97;;;30.97;;
10277;SDS011;5184;51.376;7.148;2023-02-21T04:03:27;60.47;;;33.40;;
10277;SDS011;5184;51.376;7.148;2023-02-21T04:05:54;58.60;;;31.80;;
10277;SDS011;5184;51.376;7.148;2023-02-21T04:08:21;58.43;;;30.87;;
10277;SDS011;5184;51.376;7.148;2023-02-21T04:10:48;58.87;;;32.10;;
10277;SDS011;5184;51.376;7.148;2023-02-21T04:13:15;61.93;;;32.17;;
10277;SDS011;5184;51.376;7.148;2023-02-21T04:15:41;60.23;;;32.57;;
10277;SDS011;5184;51.376;7.148;2023-02-21T04:18:08;56.60;;;31.83;;
10277;SDS011;5184;51.376;7.148;2023-02-21T04:20:34;62.07;;;32.67;;
10277;SDS011;5184;51.376;7.148;2023-02-21T04:23:02;60.17;;;32.80;;
10277;SDS011;5184;51.376;7.148;2023-02-21T04:25:29;57.53;;;32.10;;
10277;SDS011;5184;51.376;7.148;2023-02-21T04:27:56;64.17;;;32.73;;
10277;SDS011;5184;51.376;7.148;2023-02-21T04:30:23;60.37;;;32.70;;
10277;SDS011;5184;51.376;7.148;2023-02-21T04:32:50;67.80;;;33.53;;
10277;SDS011;5184;51.376;7.148;2023-02-21T04:35:18;65.33;;;32.37;;
10277;SDS011;5184;51.376;7.148;2023-02-21T04:37:45;68.10;;;35.37;;
10277;SDS011;5184;51.376;7.148;2023-02-21T04:40:11;61.17;;;32.17;;
10277;SDS011;5184;51.376;7.148;2023-02-21T04:42:38;66.33;;;34.90;;
10277;SDS011;5184;51.376;7.148;2023-02-21T04:45:04;69.70;;;35.30;;
10277;SDS011;5184;51.376;7.148;2023-02-21T04:47:31;67.37;;;35.87;;
10277;SDS011;5184;51.376;7.148;2023-02-21T04:49:58;69.73;;;34.60;;
10277;SDS011;5184;51.376;7.148;2023-02-21T04:52:24;68.97;;;35.57;;
10277;SDS011;5184;51.376;7.148;2023-02-21T04:54:51;64.93;;;35.00;;
10277;SDS011;5184;51.376;7.148;2023-02-21T04:57:18;67.80;;;34.33;;
10277;SDS011;5184;51.376;7.148;2023-02-21T04:59:46;65.80;;;34.43;;
10277;SDS011;5184;51.376;7.148;2023-02-21T05:02:12;66.23;;;34.43;;
10277;SDS011;5184;51.376;7.148;2023-02-21T05:04:39;64.83;;;33.60;;
10277;SDS011;5184;51.376;7.148;2023-02-21T05:07:06;64.50;;;33.90;;
10277;SDS011;5184;51.376;7.148;2023-02-21T05:09:33;68.07;;;36.17;;
10277;SDS011;5184;51.376;7.148;2023-02-21T05:12:00;66.47;;;34.93;;
10277;SDS011;5184;51.376;7.148;2023-02-21T05:14:28;68.43;;;34.87;;
10277;SDS011;5184;51.376;7.148;2023-02-21T05:16:54;71.90;;;35.30;;
10277;SDS011;5184;51.376;7.148;2023-02-21T05:19:21;67.77;;;35.80;;
10277;SDS011;5184;51.376;7.148;2023-02-21T05:21:56;66.60;;;35.20;;
10277;SDS011;5184;51.376;7.148;2023-02-21T05:24:22;64.87;;;34.63;;
10277;SDS011;5184;51.376;7.148;2023-02-21T05:26:49;68.57;;;36.57;;
10277;SDS011;5184;51.376;7.148;2023-02-21T05:29:16;64.50;;;34.07;;
10277;SDS011;5184;51.376;7.148;2023-02-21T05:31:43;63.80;;;34.20;;
10277;SDS011;5184;51.376;7.148;2023-02-21T05:34:11;65.57;;;34.87;;
10277;SDS011;5184;51.376;7.148;2023-02-21T05:36:38;63.87;;;35.07;;
10277;SDS011;5184;51.376;7.148;2023-02-21T05:39:05;68.57;;;35.37;;
10277;SDS011;5184;51.376;7.148;2023-02-21T05:41:32;64.93;;;35.10;;
10277;SDS011;5184;51.376;7.148;2023-02-21T05:43:58;63.90;;;34.13;;
10277;SDS011;5184;51.376;7.148;2023-02-21T05:46:28;70.70;;;35.90;;
10277;SDS011;5184;51.376;7.148;2023-02-21T05:48:56;69.03;;;35.57;;
10277;SDS011;5184;51.376;7.148;2023-02-21T05:51:21;62.67;;;34.63;;
10277;SDS011;5184;51.376;7.148;2023-02-21T05:53:48;69.07;;;37.30;;
10277;SDS011;5184;51.376;7.148;2023-02-21T05:56:16;63.93;;;35.30;;
10277;SDS011;5184;51.376;7.148;2023-02-21T05:58:43;67.80;;;35.97;;
10277;SDS011;5184;51.376;7.148;2023-02-21T06:01:09;68.20;;;36.13;;
10277;SDS011;5184;51.376;7.148;2023-02-21T06:03:36;65.67;;;34.30;;
10277;SDS011;5184;51.376;7.148;2023-02-21T06:06:03;71.27;;;36.63;;
10277;SDS011;5184;51.376;7.148;2023-02-21T06:08:29;71.37;;;36.90;;
10277;SDS011;5184;51.376;7.148;2023-02-21T06:10:56;70.67;;;36.87;;
10277;SDS011;5184;51.376;7.148;2023-02-21T06:13:24;71.07;;;35.00;;
10277;SDS011;5184;51.376;7.148;2023-02-21T06:15:51;70.53;;;36.33;;
10277;SDS011;5184;51.376;7.148;2023-02-21T06:18:18;68.37;;;35.57;;
10277;SDS011;5184;51.376;7.148;2023-02-21T06:20:45;67.97;;;34.70;;
10277;SDS011;5184;51.376;7.148;2023-02-21T06:23:11;63.20;;;33.70;;
10277;SDS011;5184;51.376;7.148;2023-02-21T06:25:38;66.03;;;35.07;;
10277;SDS011;5184;51.376;7.148;2023-02-21T06:28:05;65.33;;;34.40;;
10277;SDS011;5184;51.376;7.148;2023-02-21T06:30:33;65.27;;;35.00;;
10277;SDS011;5184;51.376;7.148;2023-02-21T06:32:59;72.40;;;35.77;;
10277;SDS011;5184;51.376;7.148;2023-02-21T06:35:26;69.53;;;35.20;;
10277;SDS011;5184;51.376;7.148;2023-02-21T06:37:53;63.73;;;34.00;;
10277;SDS011;5184;51.376;7.148;2023-02-21T06:40:20;68.30;;;34.70;;
10277;SDS011;5184;51.376;7.148;2023-02-21T06:42:47;72.13;;;34.90;;
10277;SDS011;5184;51.376;7.148;2023-02-21T06:45:15;72.30;;;35.77;;
10277;SDS011;5184;51.376;7.148;2023-02-21T06:47:42;71.80;;;35.93;;
10277;SDS011;5184;51.376;7.148;2023-02-21T06:50:09;73.83;;;35.17;;
10277;SDS011;5184;51.376;7.148;2023-02-21T06:52:35;71.90;;;36.97;;
10277;SDS011;5184;51.376;7.148;2023-02-21T06:55:02;76.43;;;36.87;;
10277;SDS011;5184;51.376;7.148;2023-02-21T06:57:29;70.43;;;35.63;;
10277;SDS011;5184;51.376;7.148;2023-02-21T06:59:55;74.07;;;36.27;;
10277;SDS011;5184;51.376;7.148;2023-02-21T07:02:22;75.13;;;36.27;;
10277;SDS011;5184;51.376;7.148;2023-02-21T07:04:48;73.07;;;36.07;;
10277;SDS011;5184;51.376;7.148;2023-02-21T07:07:16;69.87;;;35.10;;
10277;SDS011;5184;51.376;7.148;2023-02-21T07:09:43;73.40;;;34.53;;
10277;SDS011;5184;51.376;7.148;2023-02-21T07:12:10;75.07;;;37.17;;
10277;SDS011;5184;51.376;7.148;2023-02-21T07:14:37;68.60;;;35.00;;
10277;SDS011;5184;51.376;7.148;2023-02-21T07:17:05;71.80;;;35.33;;
10277;SDS011;5184;51.376;7.148;2023-02-21T07:19:31;75.17;;;36.33;;
10277;SDS011;5184;51.376;7.148;2023-02-21T07:21:58;74.27;;;35.87;;
10277;SDS011;5184;51.376;7.148;2023-02-21T07:24:24;74.93;;;36.67;;
10277;SDS011;5184;51.376;7.148;2023-02-21T07:26:52;78.30;;;37.47;;
10277;SDS011;5184;51.376;7.148;2023-02-21T07:29:20;85.90;;;38.70;;
10277;SDS011;5184;51.376;7.148;2023-02-21T07:31:46;82.40;;;36.53;;
10277;SDS011;5184;51.376;7.148;2023-02-21T07:34:13;82.70;;;37.77;;
10277;SDS011;5184;51.376;7.148;2023-02-21T07:36:40;83.53;;;36.40;;
10277;SDS011;5184;51.376;7.148;2023-02-21T07:39:06;83.30;;;35.60;;
10277;SDS011;5184;51.376;7.148;2023-02-21T07:41:33;79.30;;;36.50;;
10277;SDS011;5184;51.376;7.148;2023-02-21T07:44:00;80.13;;;36.00;;
10277;SDS011;5184;51.376;7.148;2023-02-21T07:46:28;77.77;;;35.53;;
10277;SDS011;5184;51.376;7.148;2023-02-21T07:48:55;82.07;;;36.03;;
10277;SDS011;5184;51.376;7.148;2023-02-21T07:51:25;81.33;;;36.73;;
10277;SDS011;5184;51.376;7.148;2023-02-21T07:53:50;76.57;;;34.73;;
10277;SDS011;5184;51.376;7.148;2023-02-21T07:56:17;78.43;;;34.97;;
10277;SDS011;5184;51.376;7.148;2023-02-21T07:58:44;80.47;;;36.07;;
10277;SDS011;5184;51.376;7.148;2023-02-21T08:01:11;79.57;;;35.10;;
10277;SDS011;5184;51.376;7.148;2023-02-21T08:03:38;84.50;;;35.57;;
10277;SDS011;5184;51.376;7.148;2023-02-21T08:06:05;80.27;;;34.00;;
10277;SDS011;5184;51.376;7.148;2023-02-21T08:08:32;89.47;;;35.00;;
10277;SDS011;5184;51.376;7.148;2023-02-21T08:10:58;87.23;;;33.23;;
10277;SDS011;5184;51.376;7.148;2023-02-21T08:13:26;91.17;;;33.03;;
10277;SDS011;5184;51.376;7.148;2023-02-21T08:15:52;88.23;;;34.10;;
10277;SDS011;5184;51.376;7.148;2023-02-21T08:18:20;88.13;;;35.80;;
10277;SDS011;5184;51.376;7.148;2023-02-21T08:20:46;90.90;;;33.63;;
10277;SDS011;5184;51.376;7.148;2023-02-21T08:23:13;86.10;;;34.37;;
10277;SDS011;5184;51.376;7.148;2023-02-21T08:25:41;82.33;;;34.20;;
10277;SDS011;5184;51.376;7.148;2023-02-21T08:28:08;97.17;;;33.93;;
10277;SDS011;5184;51.376;7.148;2023-02-21T08:30:35;97.70;;;33.57;;
10277;SDS011;5184;51.376;7.148;2023-02-21T08:33:01;90.40;;;33.33;;
10277;SDS011;5184;51.376;7.148;2023-02-21T08:35:29;107.97;;;32.63;;
10277;SDS011;5184;51.376;7.148;2023-02-21T08:37:56;78.60;;;30.07;;
10277;SDS011;5184;51.376;7.148;2023-02-21T08:40:23;81.50;;;28.83;;
10277;SDS011;5184;51.376;7.148;2023-02-21T08:42:50;63.40;;;26.00;;
10277;SDS011;5184;51.376;7.148;2023-02-21T08:45:18;71.70;;;26.40;;
10277;SDS011;5184;51.376;7.148;2023-02-21T08:47:45;58.33;;;26.40;;
10277;SDS011;5184;51.376;7.148;2023-02-21T08:50:12;70.37;;;27.90;;
10277;SDS011;5184;51.376;7.148;2023-02-21T08:52:38;76.60;;;27.83;;
10277;SDS011;5184;51.376;7.148;2023-02-21T08:55:06;72.33;;;27.23;;
10277;SDS011;5184;51.376;7.148;2023-02-21T08:57:33;73.03;;;29.10;;
10277;SDS011;5184;51.376;7.148;2023-02-21T09:00:00;68.20;;;26.80;;
10277;SDS011;5184;51.376;7.148;2023-02-21T09:02:28;69.63;;;27.37;;
10277;SDS011;5184;51.376;7.148;2023-02-21T09:04:55;79.03;;;28.13;;
10277;SDS011;5184;51.376;7.148;2023-02-21T09:07:23;74.70;;;28.30;;
10277;SDS011;5184;51.376;7.148;2023-02-21T09:09:50;69.13;;;26.83;;
10277;SDS011;5184;51.376;7.148;2023-02-21T09:12:17;68.03;;;27.57;;
10277;SDS011;5184;51.376;7.148;2023-02-21T09:14:44;74.43;;;26.67;;
10277;SDS011;5184;51.376;7.148;2023-02-21T09:17:12;75.67;;;26.23;;
10277;SDS011;5184;51.376;7.148;2023-02-21T09:19:39;65.33;;;25.10;;
10277;SDS011;5184;51.376;7.148;2023-02-21T09:22:06;73.43;;;26.80;;
10277;SDS011;5184;51.376;7.148;2023-02-21T09:24:33;72.43;;;26.70;;
10277;SDS011;5184;51.376;7.148;2023-02-21T09:27:00;65.33;;;26.47;;
10277;SDS011;5184;51.376;7.148;2023-02-21T09:29:29;68.10;;;26.43;;
10277;SDS011;5184;51.376;7.148;2023-02-21T09:31:56;70.90;;;26.27;;
10277;SDS011;5184;51.376;7.148;2023-02-21T09:34:23;59.67;;;25.73;;
10277;SDS011;5184;51.376;7.148;2023-02-21T09:36:49;59.50;;;23.80;;
10277;SDS011;5184;51.376;7.148;2023-02-21T09:39:17;63.50;;;27.53;;
10277;SDS011;5184;51.376;7.148;2023-02-21T09:41:43;63.10;;;25.17;;
10277;SDS011;5184;51.376;7.148;2023-02-21T09:44:13;56.40;;;25.17;;
10277;SDS011;5184;51.376;7.148;2023-02-21T09:46:43;60.23;;;25.87;;
10277;SDS011;5184;51.376;7.148;2023-02-21T09:49:11;54.83;;;25.00;;
10277;SDS011;5184;51.376;7.148;2023-02-21T09:51:39;62.30;;;25.73;;
10277;SDS011;5184;51.376;7.148;2023-02-21T09:54:06;60.77;;;24.97;;
10277;SDS011;5184;51.376;7.148;2023-02-21T09:56:34;53.07;;;23.90;;
10277;SDS011;5184;51.376;7.148;2023-02-21T09:59:00;54.60;;;23.27;;
10277;SDS011;5184;51.376;7.148;2023-02-21T10:01:31;49.57;;;23.13;;
10277;SDS011;5184;51.376;7.148;2023-02-21T10:04:08;48.20;;;22.63;;
10277;SDS011;5184;51.376;7.148;2023-02-21T10:06:38;50.73;;;23.10;;
10277;SDS011;5184;51.376;7.148;2023-02-21T10:09:23;50.77;;;24.20;;
10277;SDS011;5184;51.376;7.148;2023-02-21T10:11:54;50.53;;;23.90;;
10277;SDS011;5184;51.376;7.148;2023-02-21T10:18:21;52.67;;;25.17;;
10277;SDS011;5184;51.376;7.148;2023-02-21T10:19:57;46.00;;;23.47;;
10277;SDS011;5184;51.376;7.148;2023-02-21T10:22:23;43.83;;;21.87;;
10277;SDS011;5184;51.376;7.148;2023-02-21T10:24:48;47.27;;;23.40;;
10277;SDS011;5184;51.376;7.148;2023-02-21T10:27:19;43.40;;;22.40;;
10277;SDS011;5184;51.376;7.148;2023-02-21T10:29:51;42.77;;;20.90;;
10277;SDS011;5184;51.376;7.148;2023-02-21T10:32:22;39.13;;;20.70;;
10277;SDS011;5184;51.376;7.148;2023-02-21T10:34:48;37.27;;;19.80;;
10277;SDS011;5184;51.376;7.148;2023-02-21T10:37:23;37.37;;;19.60;;
10277;SDS011;5184;51.376;7.148;2023-02-21T10:39:45;35.37;;;18.57;;
10277;SDS011;5184;51.376;7.148;2023-02-21T10:42:12;36.70;;;18.73;;
10277;SDS011;5184;51.376;7.148;2023-02-21T10:44:37;33.20;;;19.30;;
10277;SDS011;5184;51.376;7.148;2023-02-21T10:47:13;35.57;;;18.43;;
10277;SDS011;5184;51.376;7.148;2023-02-21T10:49:43;36.13;;;17.67;;
10277;SDS011;5184;51.376;7.148;2023-02-21T10:52:11;32.10;;;17.53;;
10277;SDS011;5184;51.376;7.148;2023-02-21T10:54:37;33.80;;;18.13;;
10277;SDS011;5184;51.376;7.148;2023-02-21T10:57:05;32.30;;;17.00;;
10277;SDS011;5184;51.376;7.148;2023-02-21T10:59:31;37.13;;;20.90;;
10277;SDS011;5184;51.376;7.148;2023-02-21T11:01:57;34.13;;;18.70;;
10277;SDS011;5184;51.376;7.148;2023-02-21T11:04:26;29.50;;;16.07;;
10277;SDS011;5184;51.376;7.148;2023-02-21T11:06:53;31.53;;;17.83;;
10277;SDS011;5184;51.376;7.148;2023-02-21T11:11:59;30.53;;;16.73;;
10277;SDS011;5184;51.376;7.148;2023-02-21T11:14:26;31.83;;;17.00;;
10277;SDS011;5184;51.376;7.148;2023-02-21T11:17:26;25.77;;;15.67;;
10277;SDS011;5184;51.376;7.148;2023-02-21T11:19:42;26.67;;;15.00;;
10277;SDS011;5184;51.376;7.148;2023-02-21T11:22:09;25.53;;;14.57;;
10277;SDS011;5184;51.376;7.148;2023-02-21T11:27:09;25.70;;;16.20;;
10277;SDS011;5184;51.376;7.148;2023-02-21T11:29:38;24.93;;;15.13;;
10277;SDS011;5184;51.376;7.148;2023-02-21T11:32:11;29.17;;;16.30;;
10277;SDS011;5184;51.376;7.148;2023-02-21T11:34:37;26.50;;;16.63;;
10277;SDS011;5184;51.376;7.148;2023-02-21T11:37:03;31.00;;;17.27;;
10277;SDS011;5184;51.376;7.148;2023-02-21T11:39:31;27.97;;;17.63;;
10277;SDS011;5184;51.376;7.148;2023-02-21T11:41:59;29.03;;;17.27;;
10277;SDS011;5184;51.376;7.148;2023-02-21T11:44:28;28.53;;;17.17;;
10277;SDS011;5184;51.376;7.148;2023-02-21T11:47:00;32.63;;;18.20;;
10277;SDS011;5184;51.376;7.148;2023-02-21T11:49:35;29.37;;;17.27;;
10277;SDS011;5184;51.376;7.148;2023-02-21T11:52:05;31.93;;;18.50;;
10277;SDS011;5184;51.376;7.148;2023-02-21T11:54:31;30.13;;;17.70;;
10277;SDS011;5184;51.376;7.148;2023-02-21T11:57:02;29.00;;;17.37;;
10277;SDS011;5184;51.376;7.148;2023-02-21T11:59:44;32.50;;;17.47;;
10277;SDS011;5184;51.376;7.148;2023-02-21T12:02:16;33.27;;;18.40;;
10277;SDS011;5184;51.376;7.148;2023-02-21T12:05:01;35.97;;;19.63;;
10277;SDS011;5184;51.376;7.148;2023-02-21T12:10:39;33.47;;;19.03;;
10277;SDS011;5184;51.376;7.148;2023-02-21T12:13:09;36.70;;;20.30;;
10277;SDS011;5184;51.376;7.148;2023-02-21T12:18:34;37.17;;;19.60;;
10277;SDS011;5184;51.376;7.148;2023-02-21T12:21:21;31.00;;;18.30;;
10277;SDS011;5184;51.376;7.148;2023-02-21T12:23:54;34.50;;;19.13;;
10277;SDS011;5184;51.376;7.148;2023-02-21T12:29:27;35.20;;;18.53;;
10277;SDS011;5184;51.376;7.148;2023-02-21T12:32:05;32.93;;;18.50;;
10277;SDS011;5184;51.376;7.148;2023-02-21T12:34:36;30.27;;;17.10;;
10277;SDS011;5184;51.376;7.148;2023-02-21T12:37:02;32.10;;;17.80;;
10277;SDS011;5184;51.376;7.148;2023-02-21T12:40:07;33.97;;;17.10;;
10277;SDS011;5184;51.376;7.148;2023-02-21T12:45:25;32.77;;;18.80;;
10277;SDS011;5184;51.376;7.148;2023-02-21T12:48:08;33.70;;;19.80;;
10277;SDS011;5184;51.376;7.148;2023-02-21T12:50:34;31.83;;;19.73;;
10277;SDS011;5184;51.376;7.148;2023-02-21T12:53:01;31.40;;;19.50;;
10277;SDS011;5184;51.376;7.148;2023-02-21T12:55:33;33.03;;;19.20;;
10277;SDS011;5184;51.376;7.148;2023-02-21T12:58:42;37.90;;;22.03;;
10277;SDS011;5184;51.376;7.148;2023-02-21T13:00:57;36.50;;;20.37;;
10277;SDS011;5184;51.376;7.148;2023-02-21T13:03:29;36.97;;;21.87;;
10277;SDS011;5184;51.376;7.148;2023-02-21T13:05:59;41.03;;;22.07;;
10277;SDS011;5184;51.376;7.148;2023-02-21T13:08:26;36.90;;;21.53;;
10277;SDS011;5184;51.376;7.148;2023-02-21T13:13:39;39.67;;;22.37;;
10277;SDS011;5184;51.376;7.148;2023-02-21T13:16:07;40.93;;;22.40;;
10277;SDS011;5184;51.376;7.148;2023-02-21T13:18:33;39.43;;;22.77;;
10277;SDS011;5184;51.376;7.148;2023-02-21T13:21:34;44.40;;;22.97;;
10277;SDS011;5184;51.376;7.148;2023-02-21T13:23:45;40.67;;;23.37;;
10277;SDS011;5184;51.376;7.148;2023-02-21T13:28:54;45.40;;;23.00;;
10277;SDS011;5184;51.376;7.148;2023-02-21T13:31:24;45.87;;;24.80;;
10277;SDS011;5184;51.376;7.148;2023-02-21T13:33:51;44.30;;;23.33;;
10277;SDS011;5184;51.376;7.148;2023-02-21T13:36:22;42.70;;;23.30;;
10277;SDS011;5184;51.376;7.148;2023-02-21T13:38:57;46.13;;;24.17;;
10277;SDS011;5184;51.376;7.148;2023-02-21T13:41:24;43.93;;;23.63;;
10277;SDS011;5184;51.376;7.148;2023-02-21T13:43:50;47.10;;;24.43;;
10277;SDS011;5184;51.376;7.148;2023-02-21T13:46:22;44.03;;;22.60;;
10277;SDS011;5184;51.376;7.148;2023-02-21T13:51:46;45.40;;;22.63;;
10277;SDS011;5184;51.376;7.148;2023-02-21T13:54:20;47.67;;;24.90;;
10277;SDS011;5184;51.376;7.148;2023-02-21T13:56:42;41.53;;;23.63;;
10277;SDS011;5184;51.376;7.148;2023-02-21T14:02:14;40.10;;;22.37;;
10277;SDS011;5184;51.376;7.148;2023-02-21T14:04:49;44.27;;;21.20;;
10277;SDS011;5184;51.376;7.148;2023-02-21T14:07:14;39.23;;;20.93;;
10277;SDS011;5184;51.376;7.148;2023-02-21T14:09:41;38.97;;;21.47;;
10277;SDS011;5184;51.376;7.148;2023-02-21T14:12:07;40.27;;;21.37;;
10277;SDS011;5184;51.376;7.148;2023-02-21T14:14:34;40.70;;;21.97;;
10277;SDS011;5184;51.376;7.148;2023-02-21T14:17:02;41.63;;;22.63;;
10277;SDS011;5184;51.376;7.148;2023-02-21T14:19:31;40.33;;;21.97;;
10277;SDS011;5184;51.376;7.148;2023-02-21T14:21:58;45.17;;;23.60;;
10277;SDS011;5184;51.376;7.148;2023-02-21T14:24:27;43.87;;;23.80;;
10277;SDS011;5184;51.376;7.148;2023-02-21T14:26:55;44.53;;;23.10;;
10277;SDS011;5184;51.376;7.148;2023-02-21T14:29:28;42.43;;;23.87;;
10277;SDS011;5184;51.376;7.148;2023-02-21T14:40:24;47.40;;;24.40;;
10277;SDS011;5184;51.376;7.148;2023-02-21T14:42:59;44.63;;;22.90;;
10277;SDS011;5184;51.376;7.148;2023-02-21T14:45:25;49.13;;;25.00;;
10277;SDS011;5184;51.376;7.148;2023-02-21T14:50:43;49.50;;;26.50;;
10277;SDS011;5184;51.376;7.148;2023-02-21T15:01:22;52.20;;;27.67;;
10277;SDS011;5184;51.376;7.148;2023-02-21T15:03:59;57.47;;;28.13;;
10277;SDS011;5184;51.376;7.148;2023-02-21T15:06:25;51.13;;;28.03;;
10277;SDS011;5184;51.376;7.148;2023-02-21T15:08:53;56.60;;;29.30;;
10277;SDS011;5184;51.376;7.148;2023-02-21T15:11:29;50.57;;;26.30;;
10277;SDS011;5184;51.376;7.148;2023-02-21T15:16:37;53.70;;;27.47;;
10277;SDS011;5184;51.376;7.148;2023-02-21T15:19:03;61.40;;;28.90;;
10277;SDS011;5184;51.376;7.148;2023-02-21T15:21:31;53.87;;;27.97;;
10277;SDS011;5184;51.376;7.148;2023-02-21T15:24:00;56.63;;;27.43;;
10277;SDS011;5184;51.376;7.148;2023-02-21T15:26:29;59.40;;;29.00;;
10277;SDS011;5184;51.376;7.148;2023-02-21T15:31:33;60.87;;;28.93;;
10277;SDS011;5184;51.376;7.148;2023-02-21T15:34:02;61.20;;;28.07;;
10277;SDS011;5184;51.376;7.148;2023-02-21T15:36:29;64.17;;;29.90;;
10277;SDS011;5184;51.376;7.148;2023-02-21T15:39:05;65.93;;;29.77;;
10277;SDS011;5184;51.376;7.148;2023-02-21T15:41:30;61.23;;;28.30;;
10277;SDS011;5184;51.376;7.148;2023-02-21T15:44:05;67.50;;;32.70;;
10277;SDS011;5184;51.376;7.148;2023-02-21T15:46:31;59.30;;;28.40;;
10277;SDS011;5184;51.376;7.148;2023-02-21T15:48:59;68.90;;;30.97;;